createdAt,value
2022-12-07T00:01:07.297Z,3.55
2022-12-07T00:03:35.374Z,3.50
2022-12-07T00:06:04.255Z,3.95
2022-12-07T00:08:32.556Z,3.45
2022-12-07T00:11:05.023Z,4.32
2022-12-07T00:13:32.741Z,3.80
2022-12-07T00:16:03.771Z,3.88
2022-12-07T00:18:31.563Z,3.30
2022-12-07T00:21:02.853Z,3.38
2022-12-07T00:23:30.637Z,3.40
2022-12-07T00:25:58.420Z,3.10
2022-12-07T00:28:27.458Z,3.42
2022-12-07T00:31:02.269Z,3.67
2022-12-07T00:33:30.181Z,3.40
2022-12-07T00:35:58.569Z,3.78
2022-12-07T00:38:26.702Z,3.45
2022-12-07T00:40:58.920Z,3.80
2022-12-07T00:43:28.944Z,3.00
2022-12-07T00:45:56.939Z,2.95
2022-12-07T00:48:25.671Z,3.47
2022-12-07T00:50:53.744Z,3.67
2022-12-07T00:53:21.702Z,3.40
2022-12-07T00:55:49.534Z,3.20
2022-12-07T00:58:17.504Z,3.38
2022-12-07T01:00:46.728Z,3.55
2022-12-07T01:03:16.495Z,3.13
2022-12-07T01:05:52.362Z,3.20
2022-12-07T01:08:20.662Z,3.00
2022-12-07T01:10:48.611Z,3.25
2022-12-07T01:13:16.468Z,3.63
2022-12-07T01:15:46.701Z,3.17
2022-12-07T01:18:14.457Z,2.90
2022-12-07T01:20:42.148Z,3.03
2022-12-07T01:23:09.799Z,3.10
2022-12-07T01:25:38.207Z,3.05
2022-12-07T01:28:06.199Z,2.70
2022-12-07T01:30:33.911Z,3.05
2022-12-07T01:33:02.926Z,2.53
2022-12-07T01:35:30.579Z,3.38
2022-12-07T01:37:58.213Z,2.63
2022-12-07T01:40:25.870Z,3.20
2022-12-07T01:42:53.550Z,2.60
2022-12-07T01:45:40.197Z,2.70
2022-12-07T01:48:12.047Z,2.88
2022-12-07T01:50:42.437Z,2.70
2022-12-07T01:53:12.629Z,2.83
2022-12-07T01:55:44.649Z,2.90
2022-12-07T01:58:14.200Z,2.55
2022-12-07T02:00:43.183Z,3.00
2022-12-07T02:03:17.388Z,3.47
2022-12-07T02:05:46.069Z,2.70
2022-12-07T02:08:14.799Z,2.58
2022-12-07T02:10:42.682Z,2.63
2022-12-07T02:13:14.896Z,2.70
2022-12-07T02:15:55.354Z,2.55
2022-12-07T02:18:32.810Z,3.08
2022-12-07T02:21:08.159Z,2.38
2022-12-07T02:23:47.225Z,2.33
2022-12-07T02:26:54.667Z,2.20
2022-12-07T02:29:27.401Z,2.85
2022-12-07T02:32:08.875Z,2.75
2022-12-07T02:34:44.247Z,2.20
2022-12-07T02:37:21.422Z,2.35
2022-12-07T02:39:52.984Z,3.03
2022-12-07T02:42:27.241Z,2.38
2022-12-07T02:44:56.436Z,2.80
2022-12-07T02:47:26.879Z,2.70
2022-12-07T02:49:54.871Z,2.78
2022-12-07T02:52:22.532Z,2.65
2022-12-07T02:54:50.187Z,2.40
2022-12-07T02:57:31.628Z,2.50
2022-12-07T03:00:06.672Z,2.65
2022-12-07T03:02:47.596Z,2.60
2022-12-07T03:05:31.880Z,2.15
2022-12-07T03:08:04.917Z,2.28
2022-12-07T03:10:42.972Z,2.50
2022-12-07T03:13:17.010Z,2.42
2022-12-07T03:15:51.892Z,2.47
2022-12-07T03:18:23.973Z,2.35
2022-12-07T03:20:55.045Z,2.28
2022-12-07T03:23:25.242Z,3.10
2022-12-07T03:26:00.605Z,2.45
2022-12-07T03:28:33.560Z,2.20
2022-12-07T03:31:07.061Z,2.40
2022-12-07T03:33:42.167Z,1.88
2022-12-07T03:36:17.372Z,2.95
2022-12-07T03:38:49.905Z,2.10
2022-12-07T03:41:24.424Z,2.28
2022-12-07T03:43:52.261Z,2.13
2022-12-07T03:46:29.522Z,2.03
2022-12-07T03:49:06.310Z,2.22
2022-12-07T03:51:42.423Z,2.58
2022-12-07T03:54:15.568Z,2.40
2022-12-07T03:56:46.293Z,2.55
2022-12-07T03:59:15.557Z,1.90
2022-12-07T04:01:45.622Z,2.00
2022-12-07T04:04:13.364Z,2.58
2022-12-07T04:06:41.123Z,2.35
2022-12-07T04:09:08.778Z,2.47
2022-12-07T04:11:36.494Z,1.83
2022-12-07T04:14:22.184Z,1.90
2022-12-07T04:16:53.222Z,2.08
2022-12-07T04:19:23.238Z,2.10
2022-12-07T04:21:50.867Z,2.17
2022-12-07T04:24:19.441Z,2.10
2022-12-07T04:26:47.693Z,2.50
2022-12-07T04:29:16.638Z,2.03
2022-12-07T04:31:44.774Z,1.75
2022-12-07T04:34:15.044Z,1.73
2022-12-07T04:36:43.579Z,1.83
2022-12-07T04:39:20.687Z,1.95
2022-12-07T04:41:48.341Z,1.65
2022-12-07T04:44:17.753Z,2.67
2022-12-07T04:46:46.031Z,2.28
2022-12-07T04:49:16.693Z,1.83
2022-12-07T04:51:44.689Z,2.47
2022-12-07T04:54:12.692Z,1.80
2022-12-07T04:56:40.502Z,1.73
2022-12-07T04:59:08.905Z,1.90
2022-12-07T05:01:36.653Z,2.28
2022-12-07T05:04:04.852Z,2.13
2022-12-07T05:06:33.896Z,2.22
2022-12-07T05:09:02.373Z,1.90
2022-12-07T05:11:41.969Z,2.17
2022-12-07T05:14:13.660Z,1.98
2022-12-07T05:16:42.406Z,2.58
2022-12-07T05:19:10.859Z,2.08
2022-12-07T05:21:40.750Z,2.33
2022-12-07T05:24:09.738Z,2.35
2022-12-07T05:26:37.420Z,2.08
2022-12-07T05:29:05.787Z,1.77
2022-12-07T05:31:33.943Z,2.25
2022-12-07T05:34:01.733Z,1.58
2022-12-07T05:36:32.048Z,1.80
2022-12-07T05:39:01.324Z,1.40
2022-12-07T05:41:46.640Z,2.00
2022-12-07T05:44:14.589Z,1.67
2022-12-07T05:46:42.294Z,1.95
2022-12-07T05:49:09.961Z,1.80
2022-12-07T05:51:37.704Z,1.67
2022-12-07T05:54:06.788Z,1.52
2022-12-07T05:56:34.438Z,2.13
2022-12-07T05:59:19.576Z,1.80
2022-12-07T06:01:47.299Z,1.80
2022-12-07T06:04:15.019Z,1.80
2022-12-07T06:06:42.786Z,1.52
2022-12-07T06:09:12.642Z,1.90
2022-12-07T06:11:58.613Z,1.75
2022-12-07T06:14:26.317Z,1.83
2022-12-07T06:16:54.081Z,2.33
2022-12-07T06:19:21.778Z,1.58
2022-12-07T06:21:49.482Z,2.78
2022-12-07T06:24:19.861Z,1.55
2022-12-07T06:26:47.994Z,1.83
2022-12-07T06:29:16.192Z,1.80
2022-12-07T06:31:43.961Z,1.65
2022-12-07T06:34:13.612Z,1.58
2022-12-07T06:36:41.951Z,1.70
2022-12-07T06:39:10.298Z,1.67
2022-12-07T06:41:40.053Z,1.67
2022-12-07T06:44:08.249Z,1.85
2022-12-07T06:46:37.200Z,1.73
2022-12-07T06:49:05.817Z,1.58
2022-12-07T06:51:33.783Z,1.60
2022-12-07T06:54:01.430Z,1.77
2022-12-07T06:56:29.732Z,2.13
2022-12-07T06:58:58.880Z,1.80
2022-12-07T07:01:26.667Z,2.63
2022-12-07T07:03:54.403Z,1.92
2022-12-07T07:06:22.264Z,2.40
2022-12-07T07:08:50.008Z,2.85
2022-12-07T07:11:18.042Z,1.42
2022-12-07T07:13:46.408Z,2.08
2022-12-07T07:16:16.252Z,2.10
2022-12-07T07:18:43.967Z,2.40
2022-12-07T07:21:11.662Z,1.80
2022-12-07T07:23:39.392Z,2.58
2022-12-07T07:26:07.056Z,1.98
2022-12-07T07:28:34.757Z,2.33
2022-12-07T07:31:02.524Z,2.53
2022-12-07T07:33:31.634Z,2.60
2022-12-07T07:35:59.313Z,2.40
2022-12-07T07:38:27.207Z,2.75
2022-12-07T07:40:54.918Z,2.47
2022-12-07T07:43:22.586Z,2.88
2022-12-07T07:45:50.321Z,2.72
2022-12-07T07:48:18.061Z,3.33
2022-12-07T07:50:47.105Z,2.90
2022-12-07T07:53:14.793Z,2.58
2022-12-07T07:55:42.441Z,3.53
2022-12-07T07:58:10.453Z,3.40
2022-12-07T08:00:38.092Z,3.95
2022-12-07T08:03:05.806Z,3.35
2022-12-07T08:05:33.479Z,3.58
2022-12-07T08:08:02.631Z,4.20
2022-12-07T08:10:30.390Z,2.90
2022-12-07T08:13:14.483Z,2.60
2022-12-07T08:15:44.180Z,2.97
2022-12-07T08:18:12.304Z,2.90
2022-12-07T08:20:40.688Z,3.00
2022-12-07T08:23:13.541Z,2.80
2022-12-07T08:25:41.379Z,3.33
2022-12-07T08:28:09.447Z,2.47
2022-12-07T08:30:37.191Z,3.33
2022-12-07T08:33:04.905Z,3.35
2022-12-07T08:35:34.877Z,3.42
2022-12-07T08:38:03.293Z,3.80
2022-12-07T08:40:33.434Z,3.28
2022-12-07T08:43:01.101Z,3.20
2022-12-07T08:45:28.908Z,4.05
2022-12-07T08:48:00.260Z,3.17
2022-12-07T08:50:28.564Z,3.83
2022-12-07T08:52:58.797Z,3.45
2022-12-07T08:55:28.198Z,3.10
2022-12-07T08:57:59.130Z,3.03
2022-12-07T09:00:27.131Z,2.80
2022-12-07T09:02:55.496Z,2.35
2022-12-07T09:05:24.144Z,3.00
2022-12-07T09:07:54.910Z,3.50
2022-12-07T09:10:22.624Z,2.85
2022-12-07T09:12:50.394Z,3.00
2022-12-07T09:15:19.527Z,2.80
2022-12-07T09:17:47.330Z,3.05
2022-12-07T09:20:15.126Z,2.75
2022-12-07T09:22:42.764Z,2.92
2022-12-07T09:25:10.837Z,2.65
2022-12-07T09:27:38.479Z,2.38
2022-12-07T09:30:07.459Z,2.60
2022-12-07T09:32:36.579Z,2.60
2022-12-07T09:35:04.482Z,2.15
2022-12-07T09:37:36.071Z,2.35
2022-12-07T09:40:04.884Z,2.28
2022-12-07T09:42:37.710Z,2.45
2022-12-07T09:45:08.745Z,2.63
2022-12-07T09:47:37.816Z,2.65
2022-12-07T09:50:08.261Z,2.92
2022-12-07T09:52:39.257Z,2.65
2022-12-07T09:55:12.883Z,2.47
2022-12-07T09:57:41.001Z,2.58
2022-12-07T10:00:16.501Z,2.72
2022-12-07T10:02:48.314Z,2.40
2022-12-07T10:05:24.109Z,2.42
2022-12-07T10:07:52.819Z,2.55
2022-12-07T10:10:26.544Z,2.47
2022-12-07T10:12:59.815Z,2.30
2022-12-07T10:15:44.916Z,2.47
2022-12-07T10:18:29.263Z,3.40
2022-12-07T10:21:12.514Z,2.08
2022-12-07T10:23:41.922Z,2.50
2022-12-07T10:26:28.662Z,2.33
2022-12-07T10:28:57.629Z,2.20
2022-12-07T10:31:25.637Z,2.88
2022-12-07T10:33:56.550Z,2.53
2022-12-07T10:36:26.917Z,2.28
2022-12-07T10:39:01.759Z,3.05
2022-12-07T10:41:29.465Z,2.20
2022-12-07T10:43:59.189Z,2.80
2022-12-07T10:46:53.219Z,2.60
2022-12-07T10:49:47.672Z,2.85
2022-12-07T10:52:29.095Z,3.42
2022-12-07T10:55:11.005Z,2.53
2022-12-07T10:57:53.369Z,2.65
2022-12-07T11:00:24.365Z,2.65
2022-12-07T11:03:07.781Z,3.53
2022-12-07T11:05:44.372Z,2.40
2022-12-07T11:08:22.156Z,2.53
2022-12-07T11:10:57.287Z,2.55
2022-12-07T11:13:30.953Z,2.50
2022-12-07T11:16:17.188Z,4.10
2022-12-07T11:18:57.460Z,2.50
2022-12-07T11:21:33.202Z,2.60
2022-12-07T11:24:07.459Z,2.85
2022-12-07T11:26:53.970Z,2.85
2022-12-07T11:29:39.521Z,2.80
2022-12-07T11:32:16.577Z,2.83
2022-12-07T11:34:52.048Z,2.28
2022-12-07T11:37:25.911Z,2.72
2022-12-07T11:39:57.585Z,2.83
2022-12-07T11:42:28.205Z,2.35
2022-12-07T11:45:02.225Z,2.65
2022-12-07T11:47:37.119Z,2.80
2022-12-07T11:50:16.595Z,2.53
2022-12-07T11:52:53.704Z,2.38
2022-12-07T11:55:26.545Z,2.38
2022-12-07T11:58:04.140Z,3.58
2022-12-07T12:00:31.867Z,2.30
2022-12-07T12:03:05.297Z,2.20
2022-12-07T12:05:33.073Z,2.67
2022-12-07T12:11:12.921Z,1.70
2022-12-07T12:17:31.915Z,1.90
2022-12-07T12:20:08.129Z,1.87
2022-12-07T12:22:40.005Z,1.80
2022-12-07T12:25:21.795Z,2.15
2022-12-07T12:27:52.308Z,1.70
2022-12-07T12:30:33.883Z,3.05
2022-12-07T12:33:07.860Z,2.45
2022-12-07T12:35:37.688Z,2.00
2022-12-07T12:38:28.975Z,2.08
2022-12-07T12:40:58.885Z,1.98
2022-12-07T12:43:53.482Z,1.85
2022-12-07T12:46:50.686Z,1.70
2022-12-07T12:49:37.713Z,1.80
2022-12-07T12:52:50.402Z,1.75
2022-12-07T12:55:22.933Z,2.17
2022-12-07T12:58:49.776Z,1.70
2022-12-07T13:01:49.249Z,1.95
2022-12-07T13:04:34.919Z,1.77
2022-12-07T13:07:02.664Z,1.65
2022-12-07T13:09:34.336Z,1.50
2022-12-07T13:12:06.242Z,1.58
2022-12-07T13:14:59.371Z,1.65
2022-12-07T13:18:02.884Z,1.60
2022-12-07T13:20:55.149Z,1.70
2022-12-07T13:23:31.544Z,1.45
2022-12-07T13:26:16.874Z,1.60
2022-12-07T13:28:47.507Z,1.80
2022-12-07T13:31:30.568Z,1.20
2022-12-07T13:33:58.334Z,1.38
2022-12-07T13:36:27.793Z,1.77
2022-12-07T13:38:58.568Z,1.90
2022-12-07T13:41:28.109Z,1.50
2022-12-07T13:44:02.932Z,2.45
2022-12-07T13:46:45.457Z,2.35
2022-12-07T13:49:23.689Z,1.70
2022-12-07T13:51:51.918Z,1.60
2022-12-07T13:54:20.522Z,1.90
2022-12-07T13:56:52.501Z,1.63
2022-12-07T13:59:23.225Z,1.50
2022-12-07T14:01:53.776Z,1.42
2022-12-07T14:04:32.227Z,1.45
2022-12-07T14:07:01.707Z,1.75
2022-12-07T14:09:30.956Z,1.83
2022-12-07T14:11:59.705Z,1.55
2022-12-07T14:14:36.020Z,2.03
2022-12-07T14:17:17.176Z,1.83
2022-12-07T14:19:53.290Z,1.40
2022-12-07T14:22:33.515Z,2.03
2022-12-07T14:25:04.028Z,1.42
2022-12-07T14:27:36.946Z,1.48
2022-12-07T14:30:05.116Z,1.42
2022-12-07T14:32:37.506Z,2.15
2022-12-07T14:35:12.450Z,1.40
2022-12-07T14:37:42.165Z,1.88
2022-12-07T14:40:15.417Z,1.30
2022-12-07T14:42:44.114Z,2.00
2022-12-07T14:45:16.732Z,1.58
2022-12-07T14:50:39.170Z,2.38
2022-12-07T14:55:49.725Z,1.80
2022-12-07T14:58:19.141Z,1.45
2022-12-07T15:00:48.385Z,1.70
2022-12-07T15:03:17.544Z,1.80
2022-12-07T15:05:45.432Z,1.15
2022-12-07T15:08:14.773Z,1.60
2022-12-07T15:10:42.721Z,1.50
2022-12-07T15:13:28.307Z,1.45
2022-12-07T15:15:56.968Z,1.60
2022-12-07T15:18:27.180Z,1.67
2022-12-07T15:20:54.914Z,1.30
2022-12-07T15:23:22.645Z,1.50
2022-12-07T15:25:51.289Z,1.30
2022-12-07T15:28:19.005Z,1.20
2022-12-07T15:30:47.429Z,1.80
2022-12-07T15:33:15.715Z,1.90
2022-12-07T15:35:46.937Z,1.40
2022-12-07T15:38:14.726Z,1.42
2022-12-07T15:40:42.413Z,1.67
2022-12-07T15:43:31.129Z,1.98
2022-12-07T15:45:58.282Z,1.92
2022-12-07T15:48:28.668Z,1.60
2022-12-07T15:51:05.272Z,1.63
2022-12-07T15:53:33.092Z,1.70
2022-12-07T15:56:00.971Z,1.80
2022-12-07T15:58:28.742Z,1.75
2022-12-07T16:00:56.516Z,1.98
2022-12-07T16:03:24.335Z,3.05
2022-12-07T16:05:52.121Z,5.03
2022-12-07T16:08:21.970Z,5.60
2022-12-07T16:10:49.720Z,5.70
2022-12-07T16:13:19.185Z,5.78
2022-12-07T16:15:46.901Z,6.05
2022-12-07T16:18:14.704Z,8.38
2022-12-07T16:20:42.458Z,7.50
2022-12-07T16:23:10.213Z,9.10
2022-12-07T16:25:39.208Z,10.15
2022-12-07T16:28:06.985Z,10.32
2022-12-07T16:30:35.634Z,10.50
2022-12-07T16:33:03.365Z,9.23
2022-12-07T16:35:31.133Z,8.68
2022-12-07T16:37:58.824Z,8.38
2022-12-07T16:40:26.559Z,8.15
2022-12-07T16:42:55.989Z,7.90
2022-12-07T16:45:23.969Z,6.55
2022-12-07T16:47:51.721Z,6.78
2022-12-07T16:50:19.566Z,6.18
2022-12-07T16:52:47.235Z,6.00
2022-12-07T16:55:16.259Z,5.07
2022-12-07T16:57:43.904Z,5.25
2022-12-07T17:00:13.726Z,5.22
2022-12-07T17:02:41.408Z,4.93
2022-12-07T17:05:10.456Z,4.43
2022-12-07T17:07:38.169Z,4.35
2022-12-07T17:10:07.197Z,4.55
2022-12-07T17:12:34.831Z,3.97
2022-12-07T17:15:21.752Z,3.75
2022-12-07T17:17:56.448Z,3.80
2022-12-07T17:20:26.046Z,3.70
2022-12-07T17:22:54.373Z,3.03
2022-12-07T17:25:22.426Z,2.85
2022-12-07T17:27:50.165Z,3.60
2022-12-07T17:30:18.225Z,3.42
2022-12-07T17:32:45.937Z,2.85
2022-12-07T17:35:15.051Z,3.10
2022-12-07T17:37:47.411Z,3.55
2022-12-07T17:40:18.324Z,2.50
2022-12-07T17:42:50.038Z,2.78
2022-12-07T17:45:18.128Z,2.30
2022-12-07T17:47:45.836Z,2.65
2022-12-07T17:50:14.915Z,2.63
2022-12-07T17:52:56.531Z,2.25
2022-12-07T17:55:24.249Z,2.35
2022-12-07T17:57:53.265Z,2.13
2022-12-07T18:00:21.352Z,2.42
2022-12-07T18:02:49.185Z,2.42
2022-12-07T18:05:18.565Z,2.08
2022-12-07T18:07:46.305Z,2.53
2022-12-07T18:10:14.167Z,2.10
2022-12-07T18:12:41.832Z,2.72
2022-12-07T18:15:10.344Z,2.33
2022-12-07T18:17:38.077Z,2.20
2022-12-07T18:20:07.308Z,2.53
2022-12-07T18:22:37.586Z,2.60
2022-12-07T18:25:06.285Z,2.10
2022-12-07T18:27:34.133Z,2.42
2022-12-07T18:30:01.850Z,2.70
2022-12-07T18:32:30.917Z,2.13
2022-12-07T18:34:58.756Z,2.20
2022-12-07T18:37:27.538Z,1.73
2022-12-07T18:39:58.062Z,2.30
2022-12-07T18:42:25.998Z,2.08
2022-12-07T18:44:53.700Z,2.75
2022-12-07T18:47:21.373Z,2.58
2022-12-07T18:49:49.017Z,2.30
2022-12-07T18:52:16.721Z,2.30
2022-12-07T18:54:44.471Z,2.28
2022-12-07T18:57:13.514Z,2.72
2022-12-07T18:59:50.388Z,2.65
2022-12-07T19:02:19.108Z,2.15
2022-12-07T19:04:47.027Z,2.65
2022-12-07T19:07:14.752Z,3.22
2022-12-07T19:09:42.454Z,2.63
2022-12-07T19:12:14.112Z,3.10
2022-12-07T19:14:41.910Z,2.28
2022-12-07T19:17:12.912Z,3.10
2022-12-07T19:19:42.414Z,3.42
2022-12-07T19:22:11.453Z,2.50
2022-12-07T19:24:39.178Z,3.10
2022-12-07T19:27:07.900Z,3.00
2022-12-07T19:29:37.149Z,2.50
2022-12-07T19:32:08.666Z,3.25
2022-12-07T19:34:37.041Z,2.97
2022-12-07T19:37:05.404Z,3.08
2022-12-07T19:39:33.191Z,2.88
2022-12-07T19:42:00.900Z,2.88
2022-12-07T19:44:30.008Z,2.90
2022-12-07T19:47:04.521Z,3.08
2022-12-07T19:49:34.510Z,3.13
2022-12-07T19:52:04.407Z,2.72
2022-12-07T19:54:33.169Z,2.70
2022-12-07T19:57:00.998Z,2.58
2022-12-07T19:59:30.343Z,2.85
2022-12-07T20:01:59.433Z,2.90
2022-12-07T20:04:28.757Z,3.05
2022-12-07T20:06:59.332Z,3.85
2022-12-07T20:09:27.654Z,3.22
2022-12-07T20:12:13.097Z,3.70
2022-12-07T20:14:40.796Z,2.80
2022-12-07T20:17:09.918Z,3.10
2022-12-07T20:19:37.904Z,3.30
2022-12-07T20:22:06.074Z,2.65
2022-12-07T20:24:36.029Z,3.50
2022-12-07T20:27:05.102Z,3.08
2022-12-07T20:29:33.192Z,2.95
2022-12-07T20:32:00.862Z,3.05
2022-12-07T20:34:30.326Z,3.33
2022-12-07T20:36:58.051Z,3.20
2022-12-07T20:39:25.885Z,3.42
2022-12-07T20:42:11.354Z,3.03
2022-12-07T20:44:39.276Z,2.53
2022-12-07T20:47:07.804Z,2.35
2022-12-07T20:49:36.838Z,2.30
2022-12-07T20:52:04.903Z,2.67
2022-12-07T20:54:32.652Z,3.28
2022-12-07T20:57:00.410Z,2.50
2022-12-07T20:59:28.175Z,2.30
2022-12-07T21:01:55.948Z,2.53
2022-12-07T21:04:23.636Z,2.58
2022-12-07T21:06:52.681Z,2.30
2022-12-07T21:09:26.541Z,2.33
2022-12-07T21:11:54.658Z,2.40
2022-12-07T21:14:22.431Z,2.58
2022-12-07T21:16:50.407Z,2.08
2022-12-07T21:19:18.316Z,2.42
2022-12-07T21:21:46.058Z,2.20
2022-12-07T21:24:15.152Z,2.10
2022-12-07T21:26:42.856Z,1.88
2022-12-07T21:29:10.964Z,2.10
2022-12-07T21:31:38.742Z,1.88
2022-12-07T21:34:06.779Z,2.17
2022-12-07T21:36:35.134Z,2.65
2022-12-07T21:39:03.270Z,2.15
2022-12-07T21:41:34.428Z,1.85
2022-12-07T21:44:03.002Z,1.88
2022-12-07T21:46:34.041Z,2.13
2022-12-07T21:49:05.470Z,2.10
2022-12-07T21:51:33.351Z,2.22
2022-12-07T21:54:02.135Z,2.00
2022-12-07T21:56:32.832Z,1.83
2022-12-07T21:59:02.510Z,2.15
2022-12-07T22:01:34.314Z,2.13
2022-12-07T22:04:02.286Z,2.10
2022-12-07T22:06:29.963Z,1.75
2022-12-07T22:08:57.661Z,2.13
2022-12-07T22:11:25.328Z,2.10
2022-12-07T22:14:11.961Z,2.60
2022-12-07T22:16:40.300Z,2.17
2022-12-07T22:19:08.618Z,2.08
2022-12-07T22:21:36.960Z,2.50
2022-12-07T22:24:05.492Z,2.50
2022-12-07T22:26:33.499Z,2.40
2022-12-07T22:29:03.338Z,2.17
2022-12-07T22:31:31.202Z,2.47
2022-12-07T22:33:59.305Z,3.35
2022-12-07T22:36:28.262Z,2.80
2022-12-07T22:38:56.120Z,3.92
2022-12-07T22:41:25.880Z,3.13
2022-12-07T22:43:53.749Z,3.47
2022-12-07T22:46:22.992Z,3.80
2022-12-07T22:48:50.893Z,3.67
2022-12-07T22:51:23.122Z,4.22
2022-12-07T22:53:51.181Z,4.53
2022-12-07T22:56:18.923Z,4.68
2022-12-07T22:58:46.966Z,5.00
2022-12-07T23:01:17.381Z,4.85
2022-12-07T23:03:47.171Z,4.93
2022-12-07T23:06:17.209Z,4.90
2022-12-07T23:08:45.784Z,5.18
2022-12-07T23:11:38.350Z,5.45
2022-12-07T23:14:10.652Z,6.25
2022-12-07T23:16:38.682Z,5.80
2022-12-07T23:19:07.859Z,6.38
2022-12-07T23:21:35.793Z,6.25
2022-12-07T23:24:03.659Z,6.25
2022-12-07T23:26:31.327Z,7.05
2022-12-07T23:28:59.277Z,7.10
2022-12-07T23:31:27.537Z,7.50
2022-12-07T23:33:55.321Z,7.28
2022-12-07T23:36:26.076Z,7.30
2022-12-07T23:38:55.178Z,7.45
2022-12-07T23:41:24.984Z,7.43
2022-12-07T23:43:53.019Z,7.60
2022-12-07T23:46:24.054Z,7.78
2022-12-07T23:48:53.638Z,7.03
2022-12-07T23:51:21.692Z,7.05
2022-12-07T23:53:52.325Z,8.40
2022-12-07T23:56:22.166Z,8.27
2022-12-07T23:58:50.986Z,7.68
